Time;durP1;ratioP1;P1;durP2;ratioP2;P2;SDS_P1;SDS_P2;PMS_P1;PMS_P2;Temp;Humidity;BMP_temperature;BMP_pressure;BME280_temperature;BME280_humidity;BME280_pressure;Samples;Min_cycle;Max_cycle;Signal;HPM_P1;HPM_P2
2022/03/10 00:01:21;;;;;;;8.83;6.57;;;;;;;2.79;71.68;99485.94;5017009;28;20048;-58
2022/03/10 00:03:46;;;;;;;13.70;6.83;;;;;;;2.68;72.88;99490.69;5016562;28;20041;-57
2022/03/10 00:06:12;;;;;;;11.53;6.93;;;;;;;2.72;73.12;99494.16;5013122;28;20042;-56
2022/03/10 00:08:37;;;;;;;9.37;5.97;;;;;;;2.73;72.44;99498.41;5012716;28;20029;-56
2022/03/10 00:11:03;;;;;;;10.70;6.90;;;;;;;2.52;73.29;99496.19;5015279;28;20519;-56
2022/03/10 00:13:30;;;;;;;8.93;7.07;;;;;;;2.47;73.60;99501.94;5014899;28;20038;-58
2022/03/10 00:15:56;;;;;;;9.37;5.67;;;;;;;2.37;75.07;99510.97;5014548;28;20054;-58
2022/03/10 00:18:22;;;;;;;13.37;6.03;;;;;;;2.38;76.18;99509.31;5015303;28;20037;-58
2022/03/10 00:20:47;;;;;;;11.87;6.73;;;;;;;2.24;76.49;99508.91;5014999;28;20036;-56
2022/03/10 00:23:12;;;;;;;11.40;6.60;;;;;;;2.23;77.31;99509.72;5015263;28;21093;-56
2022/03/10 00:25:38;;;;;;;12.60;6.93;;;;;;;2.24;77.29;99512.31;5013175;28;20060;-57
2022/03/10 00:28:03;;;;;;;11.73;6.17;;;;;;;2.17;78.05;99509.53;5016303;28;20057;-57
2022/03/10 00:30:29;;;;;;;14.33;7.63;;;;;;;2.16;78.47;99508.69;5018181;28;20062;-57
2022/03/10 00:32:54;;;;;;;12.63;7.03;;;;;;;2.07;79.11;99515.16;5014169;28;20049;-58
2022/03/10 00:35:22;;;;;;;13.00;7.00;;;;;;;2.13;79.50;99507.72;5013312;28;20041;-58
2022/03/10 00:37:48;;;;;;;11.23;6.40;;;;;;;1.98;79.50;99508.16;5015854;28;20272;-55
2022/03/10 00:40:14;;;;;;;11.63;6.87;;;;;;;2.00;80.79;99505.66;5014990;28;20033;-56
2022/03/10 00:42:40;;;;;;;11.03;7.20;;;;;;;1.84;81.11;99497.66;5016779;28;20041;-58
2022/03/10 00:45:07;;;;;;;12.90;6.57;;;;;;;2.00;81.25;99505.66;5014560;28;20157;-55
2022/03/10 00:47:34;;;;;;;12.07;7.40;;;;;;;2.04;80.75;99508.31;5014415;28;20868;-57
2022/03/10 00:50:00;;;;;;;11.20;7.20;;;;;;;1.99;80.21;99504.84;5019893;28;20045;-58
2022/03/10 00:52:25;;;;;;;11.37;6.77;;;;;;;1.94;81.09;99513.09;5014970;28;20467;-58
2022/03/10 00:54:51;;;;;;;15.60;7.57;;;;;;;1.87;81.53;99513.72;5011703;28;20042;-61
2022/03/10 00:57:17;;;;;;;10.53;7.53;;;;;;;2.00;80.95;99515.78;5014880;28;20056;-58
2022/03/10 00:59:42;;;;;;;14.77;6.13;;;;;;;2.00;80.28;99516.63;5015183;28;20063;-58
2022/03/10 01:02:07;;;;;;;11.70;5.30;;;;;;;2.09;80.07;99516.91;5013833;28;20063;-58
2022/03/10 01:04:33;;;;;;;14.83;7.30;;;;;;;2.01;80.11;99520.03;5012954;28;20045;-55
2022/03/10 01:06:58;;;;;;;10.10;6.37;;;;;;;1.96;80.18;99514.84;5016336;28;20041;-59
2022/03/10 01:09:24;;;;;;;11.23;5.93;;;;;;;1.88;80.84;99523.00;5014511;28;20065;-56
2022/03/10 01:11:49;;;;;;;11.63;6.67;;;;;;;1.92;81.51;99524.81;5015371;28;20040;-55
2022/03/10 01:14:15;;;;;;;13.20;7.03;;;;;;;1.92;81.12;99519.75;5011756;28;20066;-58
2022/03/10 01:16:40;;;;;;;11.87;6.83;;;;;;;2.04;80.43;99517.56;5016372;28;20902;-58
2022/03/10 01:19:07;;;;;;;10.40;6.77;;;;;;;2.12;79.79;99518.69;5020406;28;20243;-54
2022/03/10 01:21:32;;;;;;;11.03;6.27;;;;;;;2.07;79.87;99522.75;5013469;28;20100;-58
2022/03/10 01:23:57;;;;;;;13.80;6.60;;;;;;;2.17;78.93;99522.19;5015906;28;20033;-56
2022/03/10 01:26:23;;;;;;;14.67;7.57;;;;;;;2.27;77.60;99522.50;5014073;28;20049;-57
2022/03/10 01:28:48;;;;;;;11.00;6.23;;;;;;;2.43;76.98;99522.91;5013498;28;20080;-58
2022/03/10 01:31:14;;;;;;;12.57;7.17;;;;;;;2.52;76.09;99524.03;5013368;28;20037;-57
2022/03/10 01:33:39;;;;;;;14.03;6.63;;;;;;;2.54;75.13;99519.88;5011748;28;20037;-56
2022/03/10 01:36:04;;;;;;;12.53;6.83;;;;;;;2.55;74.59;99529.16;5015329;28;20044;-58
2022/03/10 01:38:30;;;;;;;16.43;7.87;;;;;;;2.58;73.98;99525.88;5015308;28;20046;-58
2022/03/10 01:40:55;;;;;;;13.67;8.00;;;;;;;2.59;73.78;99530.97;5010485;28;20079;-57
2022/03/10 01:43:20;;;;;;;10.97;7.20;;;;;;;2.59;74.00;99522.53;5009747;28;20503;-58
2022/03/10 01:45:46;;;;;;;13.50;6.37;;;;;;;2.65;73.58;99527.75;5015893;28;20045;-55
2022/03/10 01:48:12;;;;;;;15.37;6.93;;;;;;;2.54;74.47;99535.06;5014926;28;20054;-58
2022/03/10 01:50:38;;;;;;;13.17;6.97;;;;;;;2.62;73.81;99536.13;5009945;28;20403;-57
2022/03/10 01:53:03;;;;;;;12.70;7.33;;;;;;;2.58;73.66;99526.72;5014423;28;20038;-57
2022/03/10 01:55:29;;;;;;;11.13;7.00;;;;;;;2.42;75.10;99527.09;5013090;28;20072;-57
2022/03/10 01:57:54;;;;;;;13.37;7.60;;;;;;;2.33;75.78;99537.00;5013993;28;20041;-58
2022/03/10 02:00:20;;;;;;;11.90;6.37;;;;;;;2.19;76.87;99526.47;5010029;28;20135;-57
2022/03/10 02:02:45;;;;;;;13.23;6.90;;;;;;;1.89;79.11;99527.25;5010978;28;20115;-57
2022/03/10 02:05:11;;;;;;;11.23;6.80;;;;;;;1.94;79.91;99540.91;5015940;28;20399;-56
2022/03/10 02:10:27;;;;;;;11.67;7.20;;;;;;;1.81;81.74;99535.47;5010318;28;20519;-57
2022/03/10 02:12:54;;;;;;;12.00;6.80;;;;;;;1.71;82.80;99537.66;5011242;28;20059;-57
2022/03/10 02:18:12;;;;;;;13.13;7.13;;;;;;;1.89;82.38;99550.00;5011367;28;20053;-56
2022/03/10 02:20:39;;;;;;;14.30;7.03;;;;;;;2.02;81.06;99549.56;5014558;28;20411;-58
2022/03/10 02:23:07;;;;;;;19.07;8.37;;;;;;;1.96;81.41;99555.28;5014414;28;20038;-56
2022/03/10 02:25:34;;;;;;;12.13;7.60;;;;;;;2.04;80.68;99547.94;5014581;28;20038;-57
2022/03/10 02:27:59;;;;;;;11.80;7.20;;;;;;;2.08;80.63;99562.41;5008801;28;20053;-58
2022/03/10 02:30:30;;;;;;;11.47;6.37;;;;;;;2.08;81.04;99562.41;5008555;28;20048;-56
2022/03/10 02:32:57;;;;;;;15.13;7.67;;;;;;;2.18;80.70;99561.84;5012700;28;20476;-58
2022/03/10 02:35:22;;;;;;;16.10;7.83;;;;;;;2.13;79.60;99561.69;5014618;28;20073;-56
2022/03/10 02:37:48;;;;;;;14.13;7.40;;;;;;;2.07;80.58;99566.59;5010290;28;20454;-57
2022/03/10 02:40:14;;;;;;;13.43;6.43;;;;;;;2.04;80.58;99565.63;5011699;28;20484;-58
2022/03/10 02:42:40;;;;;;;14.00;6.33;;;;;;;2.09;81.69;99562.44;5016480;28;20062;-58
2022/03/10 02:45:07;;;;;;;12.93;7.03;;;;;;;2.15;81.14;99566.81;5014643;28;20766;-58
2022/03/10 02:47:32;;;;;;;14.07;7.10;;;;;;;2.13;80.67;99573.50;5010784;28;20064;-57
2022/03/10 02:49:58;;;;;;;12.07;7.27;;;;;;;2.13;80.71;99569.28;5010454;28;20061;-57
2022/03/10 02:52:24;;;;;;;11.10;5.83;;;;;;;2.18;80.03;99567.75;5012068;28;20042;-57
2022/03/10 02:54:50;;;;;;;12.57;6.53;;;;;;;2.25;79.99;99571.31;5011951;28;20124;-58
2022/03/10 02:57:16;;;;;;;12.17;8.10;;;;;;;2.15;80.35;99577.78;5013039;28;20034;-59
2022/03/10 02:59:42;;;;;;;11.50;7.30;;;;;;;2.24;79.58;99572.16;5011894;28;20768;-58
2022/03/10 03:02:07;;;;;;;13.20;6.47;;;;;;;2.47;78.59;99577.84;5014413;28;20049;-58
2022/03/10 03:04:33;;;;;;;16.03;7.07;;;;;;;2.45;77.17;99575.28;5012947;28;20065;-58
2022/03/10 03:06:58;;;;;;;14.23;7.87;;;;;;;2.46;76.67;99581.22;5012213;28;20044;-59
2022/03/10 03:09:24;;;;;;;12.70;7.70;;;;;;;2.52;75.85;99581.38;5014496;28;20080;-57
2022/03/10 03:11:50;;;;;;;15.07;8.97;;;;;;;2.50;76.09;99586.41;5012926;28;20048;-58
2022/03/10 03:14:16;;;;;;;13.70;7.67;;;;;;;2.51;75.90;99587.25;5012078;28;20111;-58
2022/03/10 03:16:41;;;;;;;17.10;8.43;;;;;;;2.50;76.28;99577.97;5011799;28;20046;-59
2022/03/10 03:19:07;;;;;;;13.73;7.93;;;;;;;2.54;75.13;99590.75;5018824;28;20044;-58
2022/03/10 03:21:33;;;;;;;14.63;8.37;;;;;;;2.50;75.18;99580.50;5019852;28;20042;-56
2022/03/10 03:23:58;;;;;;;12.23;7.50;;;;;;;2.46;74.97;99576.97;5015195;28;20042;-57
2022/03/10 03:26:24;;;;;;;19.47;9.50;;;;;;;2.55;74.64;99594.97;5017842;28;20040;-56
2022/03/10 03:28:49;;;;;;;15.27;9.30;;;;;;;2.57;75.39;99595.88;5017481;28;20437;-57
2022/03/10 03:31:16;;;;;;;13.90;7.30;;;;;;;2.41;75.45;99588.69;5019469;28;20041;-56
2022/03/10 03:33:42;;;;;;;12.13;7.27;;;;;;;2.47;75.48;99593.88;5018280;28;20053;-57
2022/03/10 03:36:07;;;;;;;14.03;7.47;;;;;;;2.43;75.92;99597.16;5013692;28;20045;-58
2022/03/10 03:38:33;;;;;;;15.73;7.73;;;;;;;2.38;76.47;99597.84;5016417;28;20156;-58
2022/03/10 03:40:59;;;;;;;11.40;7.77;;;;;;;2.16;78.19;99606.47;5013031;28;20111;-57
2022/03/10 03:43:25;;;;;;;15.37;7.50;;;;;;;2.00;78.72;99602.63;5015531;28;20050;-54
2022/03/10 03:45:50;;;;;;;15.33;8.70;;;;;;;1.93;79.82;99613.34;5014349;28;20667;-58
2022/03/10 03:48:15;;;;;;;16.30;7.93;;;;;;;1.83;80.18;99612.22;5015971;28;20045;-58
2022/03/10 03:50:41;;;;;;;13.10;7.57;;;;;;;1.82;81.50;99615.53;5016977;28;20054;-57
2022/03/10 03:53:06;;;;;;;13.57;6.83;;;;;;;1.84;81.52;99621.50;5014905;28;20056;-57
2022/03/10 03:55:32;;;;;;;15.23;7.47;;;;;;;1.78;81.24;99620.47;5012971;28;20037;-58
2022/03/10 03:57:57;;;;;;;13.13;6.63;;;;;;;1.76;82.42;99620.41;5017240;28;20377;-56
2022/03/10 04:00:22;;;;;;;13.87;7.97;;;;;;;1.80;82.05;99624.75;5017988;28;20412;-54
2022/03/10 04:02:48;;;;;;;16.80;7.73;;;;;;;1.70;83.04;99632.84;5016148;28;20129;-56
2022/03/10 04:05:13;;;;;;;12.07;7.00;;;;;;;1.79;82.32;99627.22;5011613;28;20042;-57
2022/03/10 04:07:39;;;;;;;17.73;8.03;;;;;;;1.80;82.61;99628.94;5013359;28;20046;-57
2022/03/10 04:10:07;;;;;;;12.73;7.27;;;;;;;1.83;82.01;99629.03;5012340;28;20068;-55
2022/03/10 04:12:33;;;;;;;12.67;8.70;;;;;;;1.83;82.09;99634.97;5011088;28;20685;-58
2022/03/10 04:14:59;;;;;;;14.60;7.47;;;;;;;1.94;81.46;99621.81;5013688;28;20033;-58
2022/03/10 04:17:24;;;;;;;13.53;7.30;;;;;;;1.91;80.80;99619.19;5014994;28;20041;-57
2022/03/10 04:19:50;;;;;;;10.83;6.57;;;;;;;2.07;80.07;99628.97;5015279;28;20652;-56
2022/03/10 04:22:15;;;;;;;18.97;7.60;;;;;;;2.03;79.89;99617.91;5012959;28;20096;-56
2022/03/10 04:24:40;;;;;;;17.40;8.80;;;;;;;2.00;80.00;99627.03;5014836;28;20038;-55
2022/03/10 04:27:06;;;;;;;14.37;8.07;;;;;;;1.99;80.26;99620.28;5016575;28;20527;-57
2022/03/10 04:29:31;;;;;;;15.77;8.67;;;;;;;1.98;80.34;99631.19;5013709;28;20163;-57
2022/03/10 04:31:57;;;;;;;14.10;6.77;;;;;;;2.04;79.80;99636.44;5011739;28;20049;-57
2022/03/10 04:34:22;;;;;;;11.83;6.93;;;;;;;1.98;80.56;99628.69;5016931;28;20053;-57
2022/03/10 04:36:48;;;;;;;12.13;6.70;;;;;;;1.98;80.69;99637.13;5015176;28;20037;-57
2022/03/10 04:39:13;;;;;;;12.57;7.03;;;;;;;1.98;80.29;99647.25;5013553;28;20042;-58
2022/03/10 04:41:39;;;;;;;13.63;7.43;;;;;;;1.98;80.15;99646.38;5011617;28;20045;-57
2022/03/10 04:44:04;;;;;;;16.37;7.53;;;;;;;1.98;80.65;99647.25;5013936;28;20038;-57
2022/03/10 04:46:30;;;;;;;12.20;6.73;;;;;;;1.95;80.35;99641.22;5018535;28;20542;-55
2022/03/10 04:48:55;;;;;;;17.80;8.20;;;;;;;2.03;79.85;99648.25;5015230;28;20033;-56
2022/03/10 04:51:21;;;;;;;14.73;8.07;;;;;;;1.99;79.41;99653.16;5011300;28;20068;-58
2022/03/10 04:53:47;;;;;;;13.40;6.80;;;;;;;1.98;79.75;99651.44;5011574;28;20096;-58
2022/03/10 04:56:13;;;;;;;16.43;7.57;;;;;;;1.91;79.84;99657.94;5015584;28;20041;-57
2022/03/10 04:58:38;;;;;;;14.60;7.30;;;;;;;1.86;80.37;99653.56;5016520;28;20038;-58
2022/03/10 05:01:03;;;;;;;16.03;8.07;;;;;;;1.81;81.17;99648.38;5012102;28;20048;-57
2022/03/10 05:03:31;;;;;;;13.27;7.20;;;;;;;1.78;81.42;99644.06;5011798;28;20048;-57
2022/03/10 05:05:56;;;;;;;16.27;6.40;;;;;;;1.80;81.92;99651.72;5012665;28;20061;-56
2022/03/10 05:08:22;;;;;;;14.40;6.77;;;;;;;1.69;82.63;99648.84;5013263;28;20488;-55
2022/03/10 05:10:47;;;;;;;10.23;5.87;;;;;;;1.69;82.96;99653.91;5012299;28;20056;-57
2022/03/10 05:13:13;;;;;;;13.73;8.30;;;;;;;1.71;83.21;99658.97;5010196;28;20424;-57
2022/03/10 05:15:38;;;;;;;15.70;8.47;;;;;;;1.75;82.70;99656.63;5014338;28;20476;-58
2022/03/10 05:18:04;;;;;;;17.73;7.70;;;;;;;1.75;82.42;99666.72;5015416;28;20033;-56
2022/03/10 05:20:30;;;;;;;16.53;8.70;;;;;;;1.70;82.80;99665.72;5016421;28;20038;-55
2022/03/10 05:22:58;;;;;;;124.53;85.23;;;;;;;1.77;82.93;99675.22;5013259;28;20041;-57
2022/03/10 05:25:25;;;;;;;143.43;94.47;;;;;;;1.71;83.25;99664.03;5016884;28;20073;-57
2022/03/10 05:27:52;;;;;;;163.80;98.93;;;;;;;1.71;83.15;99672.50;5012122;28;20521;-55
2022/03/10 05:30:19;;;;;;;153.90;98.23;;;;;;;1.74;83.59;99684.38;5011679;28;20867;-57
2022/03/10 05:32:45;;;;;;;134.03;90.10;;;;;;;1.68;84.13;99685.03;5013189;28;20041;-58
2022/03/10 05:35:14;;;;;;;100.27;82.07;;;;;;;1.63;84.81;99694.13;5012940;28;20054;-56
2022/03/10 05:37:40;;;;;;;131.50;93.27;;;;;;;1.72;84.28;99693.56;5010035;28;20061;-57
2022/03/10 05:40:07;;;;;;;142.17;93.37;;;;;;;1.67;85.04;99701.00;5010200;28;20099;-57
2022/03/10 05:42:33;;;;;;;114.33;83.93;;;;;;;1.74;84.54;99700.38;5017641;28;20046;-56
2022/03/10 05:44:58;;;;;;;129.60;90.37;;;;;;;1.77;85.58;99690.41;5013216;28;20064;-58
2022/03/10 05:47:24;;;;;;;162.90;99.77;;;;;;;1.87;84.40;99710.94;5011633;28;20721;-56
2022/03/10 05:49:49;;;;;;;221.03;103.10;;;;;;;1.84;84.25;99707.47;5011568;28;20341;-57
2022/03/10 05:52:15;;;;;;;275.90;116.47;;;;;;;1.88;83.74;99717.66;5018671;28;20045;-58
2022/03/10 05:54:41;;;;;;;241.63;116.63;;;;;;;1.82;84.45;99725.94;5015580;28;20116;-55
2022/03/10 05:57:07;;;;;;;233.80;113.40;;;;;;;1.82;83.97;99733.53;5014946;28;20057;-57
2022/03/10 05:59:32;;;;;;;238.13;116.30;;;;;;;1.73;85.22;99734.06;5014346;28;20053;-58
2022/03/10 06:01:58;;;;;;;244.43;116.00;;;;;;;1.78;85.04;99737.59;5017443;28;20499;-58
2022/03/10 06:04:23;;;;;;;237.20;116.23;;;;;;;1.65;85.10;99749.78;5016298;28;20843;-58
2022/03/10 06:06:49;;;;;;;224.30;112.17;;;;;;;1.70;85.79;99744.06;5011460;28;20038;-57
2022/03/10 06:09:14;;;;;;;226.80;110.20;;;;;;;1.72;86.07;99755.09;5011139;28;20037;-58
2022/03/10 06:11:40;;;;;;;228.07;110.90;;;;;;;1.85;86.63;99746.25;5016004;28;20149;-58
2022/03/10 06:14:05;;;;;;;237.93;113.90;;;;;;;1.94;85.27;99754.16;5012641;28;20045;-56
2022/03/10 06:16:31;;;;;;;362.73;125.13;;;;;;;1.97;84.77;99748.31;5009949;28;20042;-57
2022/03/10 06:18:56;;;;;;;225.57;114.63;;;;;;;2.02;85.39;99750.19;5012135;28;20057;-54
2022/03/10 06:21:22;;;;;;;262.90;121.37;;;;;;;2.32;83.71;99747.78;5014722;28;20038;-57
2022/03/10 06:23:50;;;;;;;265.33;120.23;;;;;;;2.42;82.44;99749.78;5011765;28;20395;-57
2022/03/10 06:26:15;;;;;;;298.70;126.87;;;;;;;2.60;80.55;99760.47;5013182;28;20069;-56
2022/03/10 06:28:41;;;;;;;287.73;132.47;;;;;;;2.80;79.06;99756.00;5010121;28;20604;-55
2022/03/10 06:31:07;;;;;;;300.37;138.37;;;;;;;2.91;79.53;99757.22;5013123;28;20127;-58
2022/03/10 06:33:32;;;;;;;323.10;140.40;;;;;;;3.09;78.50;99764.50;5009937;28;20042;-57
2022/03/10 06:35:58;;;;;;;288.97;142.90;;;;;;;3.17;79.03;99773.16;5015862;28;20091;-55
2022/03/10 06:38:23;;;;;;;252.87;138.63;;;;;;;3.27;78.44;99771.75;5015049;28;20116;-56
2022/03/10 06:40:49;;;;;;;234.23;136.43;;;;;;;3.35;79.53;99773.69;5018353;28;20609;-58
2022/03/10 06:43:16;;;;;;;272.90;144.77;;;;;;;3.39;79.41;99779.69;5020574;28;20064;-58
2022/03/10 06:45:41;;;;;;;306.57;152.23;;;;;;;3.40;80.38;99779.72;5027372;28;20040;-58
2022/03/10 06:48:07;;;;;;;301.90;160.30;;;;;;;3.50;80.60;99781.69;5019606;28;20038;-54
2022/03/10 06:50:32;;;;;;;282.40;155.60;;;;;;;3.58;80.10;99781.91;5014482;28;20070;-55
2022/03/10 06:52:58;;;;;;;273.27;157.57;;;;;;;3.62;79.23;99779.50;5014106;28;20042;-58
2022/03/10 06:55:24;;;;;;;272.57;157.07;;;;;;;3.68;77.24;99783.88;5021510;28;20508;-58
2022/03/10 06:57:51;;;;;;;255.93;152.03;;;;;;;3.71;78.95;99790.69;5024243;28;20040;-54
2022/03/10 07:00:17;;;;;;;250.43;161.10;;;;;;;3.74;80.46;99791.63;5021721;28;20067;-56
2022/03/10 07:02:42;;;;;;;240.17;160.83;;;;;;;3.79;80.60;99784.16;5019347;28;20061;-57
2022/03/10 07:05:08;;;;;;;242.63;154.40;;;;;;;3.72;80.74;99793.28;5018866;28;20046;-55
2022/03/10 07:07:34;;;;;;;236.67;157.73;;;;;;;3.75;79.16;99789.97;5019028;28;20045;-57
2022/03/10 07:10:00;;;;;;;228.53;155.93;;;;;;;3.74;79.07;99794.16;5013188;28;20707;-56
2022/03/10 07:12:28;;;;;;;232.27;158.40;;;;;;;3.78;79.08;99797.69;5018363;28;20393;-58
2022/03/10 07:14:53;;;;;;;223.40;156.40;;;;;;;3.79;79.31;99791.75;5016376;28;20039;-57
2022/03/10 07:17:19;;;;;;;215.80;156.57;;;;;;;3.81;79.96;99792.69;5016652;28;20037;-58
2022/03/10 07:19:45;;;;;;;217.50;164.77;;;;;;;3.91;79.93;99794.63;5016137;28;20041;-56
2022/03/10 07:22:11;;;;;;;209.50;157.73;;;;;;;4.02;80.07;99803.38;5018438;28;20042;-56
2022/03/10 07:24:37;;;;;;;205.03;157.80;;;;;;;4.04;78.99;99801.72;5019245;28;20057;-55
2022/03/10 07:27:02;;;;;;;202.40;155.03;;;;;;;3.93;80.65;99798.94;5019144;28;20516;-54
2022/03/10 07:29:28;;;;;;;191.23;161.13;;;;;;;3.93;81.82;99800.59;5011566;28;20047;-55
2022/03/10 07:31:53;;;;;;;185.80;165.03;;;;;;;4.01;80.77;99799.97;5013241;28;20956;-56
2022/03/10 07:34:18;;;;;;;201.90;171.37;;;;;;;4.09;78.81;99795.09;5016651;28;20087;-58
2022/03/10 07:36:44;;;;;;;200.07;169.37;;;;;;;4.16;77.56;99803.75;5015243;28;20162;-56
2022/03/10 07:39:09;;;;;;;192.83;169.00;;;;;;;4.19;77.31;99806.34;5014604;28;20547;-56
2022/03/10 07:41:35;;;;;;;191.97;164.53;;;;;;;4.24;75.67;99805.66;5013776;28;20064;-57
2022/03/10 07:44:00;;;;;;;192.20;169.73;;;;;;;4.30;75.35;99815.94;5015286;28;20040;-56
2022/03/10 07:46:26;;;;;;;199.20;177.90;;;;;;;4.16;74.77;99808.81;5013598;28;20042;-58
2022/03/10 07:48:51;;;;;;;197.37;176.37;;;;;;;4.14;76.02;99799.47;5015281;28;20034;-56
2022/03/10 07:51:19;;;;;;;186.10;154.60;;;;;;;4.31;75.02;99809.19;5016481;28;20061;-55
2022/03/10 07:53:45;;;;;;;191.17;171.17;;;;;;;4.36;73.93;99813.56;5017452;28;20034;-56
2022/03/10 07:56:10;;;;;;;189.03;170.40;;;;;;;4.34;73.26;99815.19;5015861;28;20412;-55
2022/03/10 07:58:35;;;;;;;178.80;160.20;;;;;;;4.18;74.43;99805.47;5013953;28;20037;-55
2022/03/10 08:01:01;;;;;;;181.43;162.43;;;;;;;4.36;73.94;99818.66;5015645;28;20057;-58
2022/03/10 08:03:26;;;;;;;182.00;163.60;;;;;;;4.32;73.66;99813.44;5015595;28;20049;-56
2022/03/10 08:05:52;;;;;;;178.63;162.07;;;;;;;4.47;73.02;99808.72;5020297;28;20052;-56
2022/03/10 08:08:18;;;;;;;178.37;161.00;;;;;;;4.55;72.66;99810.63;5011805;28;20033;-57
2022/03/10 08:10:44;;;;;;;179.27;161.70;;;;;;;4.60;72.97;99808.22;5014269;28;20041;-54
2022/03/10 08:13:09;;;;;;;180.23;162.33;;;;;;;4.63;73.01;99808.25;5016665;28;20103;-57
2022/03/10 08:15:35;;;;;;;170.40;154.10;;;;;;;4.76;72.40;99811.94;5013939;28;20076;-57
2022/03/10 08:18:00;;;;;;;172.47;156.03;;;;;;;5.04;70.64;99801.59;5016336;28;20037;-56
2022/03/10 08:20:26;;;;;;;184.60;167.40;;;;;;;5.07;69.96;99802.53;5017638;28;20092;-58
2022/03/10 08:22:51;;;;;;;213.23;195.27;;;;;;;5.07;70.63;99804.19;5016238;28;20156;-57
2022/03/10 08:25:17;;;;;;;191.47;173.97;;;;;;;5.10;68.96;99794.09;5016545;28;20175;-59
2022/03/10 08:27:43;;;;;;;200.30;182.47;;;;;;;5.30;68.59;99797.94;5007046;28;20138;-57
2022/03/10 08:30:13;;;;;;;208.67;190.13;;;;;;;5.46;69.62;99802.50;5020651;28;20820;-58
2022/03/10 09:12:13;;;;;;;181.87;168.80;;;;;;;6.65;65.46;99802.97;4988003;28;20052;-58
2022/03/10 09:18:02;;;;;;;176.43;163.93;;;;;;;6.83;64.78;99802.38;5015707;28;20094;-58
2022/03/10 09:23:49;;;;;;;209.97;195.43;;;;;;;7.05;65.85;99806.94;5012625;28;20045;-54
2022/03/10 09:29:37;;;;;;;201.13;187.10;;;;;;;7.21;62.91;99816.50;5013606;28;20052;-52
2022/03/10 09:38:46;;;;;;;205.80;191.47;;;;;;;7.17;62.77;99802.00;5015661;28;20102;-52
2022/03/10 09:47:56;;;;;;;149.77;139.60;;;;;;;7.13;61.44;99802.78;5014842;28;20047;-54
2022/03/10 10:39:55;;;;;;;36.17;32.77;;;;;;;6.40;60.27;99804.25;4998218;28;20395;-56
2022/03/10 11:33:17;;;;;;;47.77;44.00;;;;;;;7.43;52.16;99787.03;5038369;28;20074;-54
2022/03/10 11:45:48;;;;;;;36.57;33.67;;;;;;;8.19;48.64;99772.50;5032040;28;20146;-57
2022/03/10 12:32:26;;;;;;;40.03;37.10;;;;;;;7.67;47.36;99753.28;5031432;28;20064;-58
2022/03/10 15:32:55;;;;;;;13.20;8.30;;;;;;;7.25;38.58;99744.31;5035403;28;20091;-56
2022/03/10 16:46:00;;;;;;;122.90;114.40;;;;;;;4.51;42.77;99757.19;5036595;28;20158;-58
2022/03/10 17:32:10;;;;;;;60.43;55.33;;;;;;;2.87;47.30;99800.97;5031509;28;20549;-58
2022/03/10 18:05:33;;;;;;;27.80;25.37;;;;;;;1.75;48.95;99828.50;5033830;28;20103;-56
2022/03/10 18:07:59;;;;;;;27.83;25.50;;;;;;;1.62;49.38;99830.53;5031568;28;20040;-57
2022/03/10 18:10:25;;;;;;;24.63;22.47;;;;;;;1.72;49.28;99832.59;5040776;28;20048;-57
2022/03/10 18:12:51;;;;;;;26.13;23.53;;;;;;;1.56;49.64;99832.84;5029355;28;20053;-57
2022/03/10 18:15:17;;;;;;;20.50;18.53;;;;;;;1.45;49.95;99841.69;5035780;28;20045;-58
2022/03/10 18:17:43;;;;;;;25.90;23.67;;;;;;;1.41;49.76;99844.91;5032523;28;20056;-55
2022/03/10 18:20:11;;;;;;;24.80;22.73;;;;;;;1.32;49.82;99840.38;5035984;28;20165;-57
2022/03/10 18:22:40;;;;;;;25.97;23.60;;;;;;;1.26;50.88;99846.09;5030671;28;20037;-59
2022/03/10 18:25:07;;;;;;;14.03;12.60;;;;;;;1.33;50.15;99845.50;5031093;28;20068;-61
2022/03/10 18:27:33;;;;;;;22.63;20.57;;;;;;;1.20;50.02;99855.94;5033789;28;20029;-57
2022/03/10 18:29:58;;;;;;;18.07;16.30;;;;;;;1.07;51.26;99856.28;5032429;28;20037;-61
2022/03/10 18:32:23;;;;;;;18.83;17.23;;;;;;;0.96;51.01;99856.69;5029673;28;20037;-60
2022/03/10 18:34:49;;;;;;;17.70;14.13;;;;;;;0.89;51.28;99858.97;5031906;28;20039;-59
2022/03/10 18:37:17;;;;;;;16.77;13.07;;;;;;;0.85;51.48;99869.75;5033342;28;20051;-59
2022/03/10 18:39:44;;;;;;;22.10;12.03;;;;;;;0.81;51.35;99870.44;5031249;28;20128;-56
2022/03/10 18:42:09;;;;;;;16.50;13.47;;;;;;;0.79;51.95;99869.53;5030225;28;20492;-54
2022/03/10 18:44:34;;;;;;;17.80;10.87;;;;;;;0.62;53.20;99867.13;5030617;28;20087;-58
2022/03/10 18:47:04;;;;;;;19.60;13.40;;;;;;;0.49;53.27;99877.50;5031920;28;20110;-60
2022/03/10 18:49:31;;;;;;;19.80;15.10;;;;;;;0.51;53.07;99876.75;5034378;28;20029;-59
2022/03/10 18:51:58;;;;;;;18.27;12.40;;;;;;;0.43;52.51;99873.94;5034706;28;20047;-59
2022/03/10 18:54:23;;;;;;;16.63;12.80;;;;;;;0.44;52.64;99877.31;5035116;28;20045;-58
2022/03/10 18:56:49;;;;;;;17.80;12.50;;;;;;;0.33;53.14;99883.59;5036463;28;20060;-59
2022/03/10 18:59:14;;;;;;;14.50;12.27;;;;;;;0.23;53.90;99879.81;5034290;28;20144;-59
2022/03/10 19:01:40;;;;;;;21.77;14.07;;;;;;;0.36;53.81;99879.53;5032339;28;20459;-59
2022/03/10 19:04:05;;;;;;;24.33;18.77;;;;;;;0.27;53.98;99883.34;5037695;28;20120;-60
2022/03/10 19:06:30;;;;;;;15.33;8.97;;;;;;;0.38;54.34;99882.97;5037378;28;20070;-58
2022/03/10 19:08:56;;;;;;;19.20;10.80;;;;;;;0.27;55.04;99889.25;5035064;28;20042;-59
2022/03/10 19:11:21;;;;;;;22.30;12.93;;;;;;;0.16;54.88;99894.66;5032822;28;20069;-62
2022/03/10 19:13:46;;;;;;;19.27;12.70;;;;;;;0.10;54.84;99892.72;5037666;28;20484;-57
2022/03/10 19:16:12;;;;;;;31.77;14.93;;;;;;;0.05;57.18;99895.81;5036013;28;20083;-59
2022/03/10 19:18:37;;;;;;;32.20;17.20;;;;;;;0.11;56.66;99893.56;5032977;28;20037;-59
2022/03/10 19:21:03;;;;;;;31.30;16.40;;;;;;;0.10;56.07;99894.38;5034597;28;20060;-58
2022/03/10 19:23:28;;;;;;;25.63;14.20;;;;;;;0.05;58.57;99896.69;5034954;28;20045;-58
2022/03/10 19:25:53;;;;;;;27.00;16.53;;;;;;;-0.07;58.53;99894.50;5035565;28;20906;-59
2022/03/10 19:28:19;;;;;;;23.23;20.67;;;;;;;-0.17;60.36;99902.47;5033056;28;20588;-57
2022/03/10 19:30:45;;;;;;;23.47;17.10;;;;;;;-0.28;60.36;99901.13;5033656;28;20045;-57
2022/03/10 19:33:11;;;;;;;20.63;16.10;;;;;;;-0.27;61.80;99897.84;5034436;28;20033;-58
2022/03/10 19:35:36;;;;;;;20.20;11.70;;;;;;;-0.39;62.04;99899.81;5035976;28;20906;-58
2022/03/10 19:38:02;;;;;;;23.77;13.87;;;;;;;-0.52;61.60;99908.47;5031160;28;20037;-60
2022/03/10 19:40:27;;;;;;;20.50;13.70;;;;;;;-0.53;63.99;99908.41;5033091;28;20043;-62
2022/03/10 19:42:53;;;;;;;20.73;11.60;;;;;;;-0.67;63.62;99925.38;5033696;28;20075;-59
2022/03/10 19:45:19;;;;;;;27.47;12.00;;;;;;;-0.66;62.71;99914.53;5032586;28;20415;-60
2022/03/10 19:47:47;;;;;;;24.17;13.53;;;;;;;-0.78;63.96;99919.00;5032282;28;20033;-60
2022/03/10 19:50:13;;;;;;;24.40;11.77;;;;;;;-0.85;64.33;99918.66;5034288;28;20079;-60
2022/03/10 19:52:39;;;;;;;20.63;11.73;;;;;;;-0.88;64.27;99921.88;5036376;28;20041;-59
2022/03/10 19:55:06;;;;;;;22.10;13.77;;;;;;;-1.00;64.49;99913.75;5034690;28;20092;-60
2022/03/10 19:57:34;;;;;;;21.93;11.87;;;;;;;-1.08;65.03;99920.94;5032009;28;20038;-59
2022/03/10 20:00:04;;;;;;;20.60;11.73;;;;;;;-1.14;66.61;99922.28;5032929;28;20041;-59
2022/03/10 20:02:30;;;;;;;22.43;14.80;;;;;;;-1.21;68.27;99922.81;5038518;28;20033;-61
2022/03/10 20:04:56;;;;;;;22.10;13.70;;;;;;;-1.31;68.59;99923.13;5034861;28;20041;-55
2022/03/10 20:07:21;;;;;;;18.27;12.37;;;;;;;-1.34;67.28;99917.97;5032075;28;20103;-58
2022/03/10 20:09:46;;;;;;;21.07;13.27;;;;;;;-1.42;67.76;99920.13;5037559;28;20080;-59
2022/03/10 20:12:12;;;;;;;22.83;14.30;;;;;;;-1.48;69.47;99920.66;5034515;28;20060;-61
2022/03/10 20:14:38;;;;;;;20.53;12.23;;;;;;;-1.56;69.78;99924.47;5034199;28;20129;-58
2022/03/10 20:17:04;;;;;;;18.07;12.23;;;;;;;-1.58;70.40;99928.56;5030714;28;20048;-58
2022/03/10 20:19:30;;;;;;;18.83;11.43;;;;;;;-1.66;69.62;99924.81;5034981;28;20045;-59
2022/03/10 20:21:55;;;;;;;18.00;11.07;;;;;;;-1.67;70.29;99924.72;5038602;28;20037;-58
2022/03/10 20:24:21;;;;;;;26.93;13.93;;;;;;;-1.69;70.80;99927.16;5034859;28;20059;-59